Terminal Aerodrome Forecast
Issued by NWS

Home | Current Version | Previous Version | Text Only | Print | Product List | Glossary On
Versions: 1 2 3 4 5 6 7 8 9 10 11 12 13 14
000
FTUS45 KFGZ 050527
TAFPGA
TAF
KPGA 050527Z 0506/0606 VRB06KT P6SM -SHRA BKN060 OVC080
     FM050800 VRB05KT P6SM BKN050 BKN070
     FM051100 VRB06KT P6SM BKN040 OVC060
      TEMPO 0511/0515 -SHRA
     FM051900 28008KT P6SM BKN060=

USA.gov is the U.S. government's official web portal to all federal, state and local government web resources and services.